Sligo Airport - TAF
(Terminal Area Forecast)

Issued at 14:21 UTC on Tue. 23-May-17

--- METARS(SA) ---

METAR EISG(SLIGO) 231330Z 23008KT 9999 OVC025 18/14 Q1019 =

--- TAFS() ---

TAF EISG(SLIGO) 231400Z 2315/2324 24012KT 9999 FEW013 BKN027 BECMG

2319/2321 23006KT PROB40 TEMPO 2321/2324 BKN013 =

--- SIGMETS(WS) ---

IE - No VALID SIGMETS/Warnings FOR THIS AREA

--- SIGMETS Volcanic(WV) ---

IE - No VALID SIGMETS/Warnings FOR THIS AREA

--- SIGMETS(WS) ---

UK - No VALID SIGMETS/Warnings FOR THIS AREA

Sligo Airport - METARs

Latest METARs for Sligo and Donegal Airports - updated every 30 mins